Time;durP1;ratioP1;P1;durP2;ratioP2;P2;SDS_P1;SDS_P2;PMS_P1;PMS_P2;Temp;Humidity;BMP_temperature;BMP_pressure;BME280_temperature;BME280_humidity;BME280_pressure;Samples;Min_cycle;Max_cycle;Signal;HPM_P1;HPM_P2
2022/10/08 00:00:45;;;;;;;21.95;8.00;;;;;;;16.10;73.22;101320.34;4952770;29;20027;-76
2022/10/08 00:03:16;;;;;;;21.70;7.82;;;;;;;16.11;73.27;101319.38;4953579;29;20035;-75
2022/10/08 00:05:41;;;;;;;16.85;8.20;;;;;;;16.13;73.64;101316.50;4957275;29;20035;-76
2022/10/08 00:08:07;;;;;;;16.10;8.73;;;;;;;16.33;73.86;101346.19;4958574;29;20063;-75
2022/10/08 00:10:33;;;;;;;20.25;8.25;;;;;;;16.30;73.93;101327.47;4957672;29;20031;-76
2022/10/08 00:13:00;;;;;;;18.52;8.00;;;;;;;16.40;74.01;101341.03;4952780;29;20110;-76
2022/10/08 00:15:25;;;;;;;17.27;7.90;;;;;;;16.42;74.03;101340.91;4952282;28;20023;-77
2022/10/08 00:17:51;;;;;;;15.70;8.55;;;;;;;16.40;73.70;101337.47;4952594;29;20054;-77
2022/10/08 00:20:17;;;;;;;23.25;7.53;;;;;;;16.36;73.70;101326.03;4952484;29;20100;-76
2022/10/08 00:22:43;;;;;;;21.50;8.52;;;;;;;16.49;73.84;101347.44;4950717;29;20483;-75
2022/10/08 00:25:09;;;;;;;13.18;7.22;;;;;;;16.42;73.89;101333.59;4952030;28;20107;-76
2022/10/08 00:27:35;;;;;;;22.75;7.95;;;;;;;16.46;73.75;101342.31;4951832;29;20133;-77
2022/10/08 00:30:02;;;;;;;21.77;7.85;;;;;;;16.42;73.62;101339.03;4952283;29;20414;-77
2022/10/08 00:32:28;;;;;;;18.30;9.75;;;;;;;16.41;73.65;101334.63;4951917;29;20035;-77
2022/10/08 00:34:53;;;;;;;27.65;8.35;;;;;;;16.44;73.51;101338.88;4951821;28;20031;-77
2022/10/08 00:37:18;;;;;;;23.25;8.30;;;;;;;16.33;73.81;101319.03;4951978;29;20027;-77
2022/10/08 00:39:44;;;;;;;19.50;9.30;;;;;;;16.39;73.77;101333.06;4950647;29;20435;-78
2022/10/08 00:42:11;;;;;;;18.70;9.13;;;;;;;16.32;74.09;101320.06;4951739;29;20023;-76
2022/10/08 00:44:46;;;;;;;19.08;9.02;;;;;;;16.34;74.43;101325.31;4965332;28;20110;-76
2022/10/08 00:47:18;;;;;;;17.73;8.98;;;;;;;16.29;74.59;101331.19;4951816;29;20050;-76
2022/10/08 00:49:50;;;;;;;15.68;9.90;;;;;;;16.27;74.68;101338.63;4951320;29;20031;-76
2022/10/08 00:52:17;;;;;;;22.65;8.63;;;;;;;16.17;74.62;101315.22;4951087;28;20098;-76
2022/10/08 00:54:43;;;;;;;21.30;9.63;;;;;;;15.97;74.76;101292.63;4951941;28;20070;-76
2022/10/08 00:57:09;;;;;;;16.38;9.07;;;;;;;16.14;74.68;101319.06;4954868;28;20470;-76
2022/10/08 00:59:36;;;;;;;11.73;8.50;;;;;;;15.95;75.08;101275.66;4952074;28;20143;-77
2022/10/08 01:02:02;;;;;;;21.60;9.63;;;;;;;15.99;75.12;101296.06;4952079;28;20525;-76
2022/10/08 01:04:28;;;;;;;20.00;8.57;;;;;;;16.08;75.29;101306.06;4951320;29;20023;-77
2022/10/08 01:07:23;;;;;;;20.70;9.57;;;;;;;16.07;75.14;101309.78;4933282;29;20047;-77
2022/10/08 01:10:15;;;;;;;23.52;9.02;;;;;;;16.08;74.85;101299.78;4910831;29;20040;-77
2022/10/08 01:12:59;;;;;;;14.13;8.68;;;;;;;16.10;74.80;101304.06;4911429;29;20118;-77
2022/10/08 01:15:35;;;;;;;15.70;8.60;;;;;;;16.05;74.50;101291.94;4911035;29;20577;-76
2022/10/08 01:18:22;;;;;;;20.77;8.82;;;;;;;15.90;74.39;101261.66;4910800;29;20884;-75
2022/10/08 01:21:09;;;;;;;21.00;9.43;;;;;;;16.11;74.71;101307.66;4910915;29;20044;-76
2022/10/08 01:24:07;;;;;;;19.60;8.05;;;;;;;16.11;74.85;101300.38;4912863;29;20574;-77
2022/10/08 01:26:51;;;;;;;23.35;8.45;;;;;;;16.08;74.52;101294.38;4912853;29;20507;-75
2022/10/08 01:29:25;;;;;;;16.58;8.98;;;;;;;16.07;74.78;101288.06;4911472;29;20040;-76
2022/10/08 01:31:57;;;;;;;15.13;8.75;;;;;;;16.04;74.59;101282.94;4910563;29;20055;-78
2022/10/08 01:34:49;;;;;;;19.67;9.43;;;;;;;15.89;75.00;101253.66;4911574;29;20563;-77
2022/10/08 01:37:23;;;;;;;14.48;9.20;;;;;;;16.08;75.08;101286.22;4911756;29;20074;-75
2022/10/08 01:39:51;;;;;;;22.23;9.65;;;;;;;15.85;74.80;101242.25;4895631;29;20056;-75
2022/10/08 01:42:20;;;;;;;44.33;9.52;;;;;;;16.04;75.20;101276.66;4911673;29;20110;-77
2022/10/08 01:44:53;;;;;;;23.20;9.40;;;;;;;15.99;74.79;101252.63;4911382;29;20039;-77
2022/10/08 01:47:22;;;;;;;23.45;9.50;;;;;;;16.11;74.66;101278.66;4948950;29;20039;-76
2022/10/08 01:49:53;;;;;;;12.65;9.07;;;;;;;16.09;74.61;101277.91;4951997;28;20035;-77
2022/10/08 01:52:35;;;;;;;18.92;10.98;;;;;;;16.12;74.98;101271.34;4952011;28;20027;-77
2022/10/08 01:55:07;;;;;;;15.15;9.75;;;;;;;16.10;74.78;101276.06;4951592;28;20506;-76
2022/10/08 01:57:35;;;;;;;22.58;10.27;;;;;;;15.95;74.47;101240.38;4951914;28;20047;-76
2022/10/08 02:00:12;;;;;;;18.48;9.57;;;;;;;16.13;74.10;101271.22;4951745;28;20479;-77
2022/10/08 02:02:39;;;;;;;12.63;8.68;;;;;;;16.12;74.02;101280.34;4951781;28;20431;-76
2022/10/08 02:05:05;;;;;;;13.95;9.55;;;;;;;16.08;73.92;101262.66;4951804;28;20651;-75
2022/10/08 02:07:34;;;;;;;22.05;9.05;;;;;;;15.91;73.99;101247.09;4951888;28;20027;-75
2022/10/08 02:10:11;;;;;;;15.70;9.93;;;;;;;16.07;73.91;101266.38;4951619;28;20031;-77
2022/10/08 02:12:39;;;;;;;35.80;10.52;;;;;;;16.06;74.20;101274.63;4951870;28;20406;-77
2022/10/08 02:15:07;;;;;;;15.98;8.63;;;;;;;16.05;74.57;101262.09;4951840;28;20046;-77
2022/10/08 02:17:42;;;;;;;21.80;9.48;;;;;;;16.01;74.51;101264.22;4951614;28;20031;-78
2022/10/08 02:20:25;;;;;;;18.08;10.13;;;;;;;16.02;74.62;101274.09;4949249;29;20039;-76
2022/10/08 02:23:28;;;;;;;18.17;9.85;;;;;;;16.06;74.72;101269.19;4953082;28;20023;-76
2022/10/08 02:25:59;;;;;;;13.52;9.60;;;;;;;16.09;74.58;101266.19;4912338;29;20052;-75
2022/10/08 02:28:34;;;;;;;14.07;9.05;;;;;;;16.06;74.73;101277.34;4911042;29;20055;-76
2022/10/08 02:31:15;;;;;;;13.48;9.30;;;;;;;15.89;74.36;101240.97;4911268;29;20080;-76
2022/10/08 02:33:51;;;;;;;15.40;9.48;;;;;;;16.03;74.32;101259.50;4911289;29;20473;-74
2022/10/08 02:36:21;;;;;;;20.90;10.10;;;;;;;16.07;74.36;101260.06;4911176;29;20048;-76
2022/10/08 02:38:53;;;;;;;18.10;10.60;;;;;;;16.16;74.25;101265.50;4911021;29;20107;-77
2022/10/08 02:41:29;;;;;;;20.98;10.85;;;;;;;15.84;74.54;101205.25;4898235;29;20044;-76
2022/10/08 02:43:58;;;;;;;21.48;9.82;;;;;;;16.15;74.72;101258.34;4914752;29;20076;-76
2022/10/08 02:46:28;;;;;;;25.30;10.75;;;;;;;16.11;74.60;101267.78;4916551;29;20051;-76
2022/10/08 02:49:04;;;;;;;20.23;10.43;;;;;;;16.08;74.35;101250.94;4910711;29;20040;-76
2022/10/08 02:51:31;;;;;;;16.17;10.70;;;;;;;16.10;74.17;101263.34;4910718;29;20047;-77
2022/10/08 02:53:58;;;;;;;15.88;12.10;;;;;;;16.08;74.23;101262.66;4910652;29;20045;-77
2022/10/08 02:56:33;;;;;;;15.55;9.35;;;;;;;16.04;74.02;101255.81;4910643;29;20499;-77
2022/10/08 02:58:59;;;;;;;25.65;10.85;;;;;;;15.85;73.89;101223.25;4913817;29;20038;-77
2022/10/08 03:01:52;;;;;;;38.03;11.90;;;;;;;15.95;74.10;101255.81;4916013;29;20142;-77
2022/10/08 03:04:25;;;;;;;20.73;10.93;;;;;;;15.79;74.23;101231.97;4954508;28;20508;-77
2022/10/08 03:06:52;;;;;;;16.48;10.73;;;;;;;16.00;73.92;101264.34;4954946;28;20031;-76
2022/10/08 03:09:20;;;;;;;24.33;12.15;;;;;;;15.93;74.61;101261.34;4954580;28;20027;-75
2022/10/08 03:11:45;;;;;;;22.30;11.88;;;;;;;15.66;74.89;101232.25;4951588;28;20043;-77
2022/10/08 03:14:16;;;;;;;26.67;12.50;;;;;;;15.81;75.12;101264.38;4927094;29;20039;-78
2022/10/08 03:16:44;;;;;;;18.95;10.55;;;;;;;15.78;75.33;101258.22;4938251;29;20443;-77
2022/10/08 03:19:12;;;;;;;19.60;11.55;;;;;;;15.58;75.95;101220.41;4935356;29;20107;-78
2022/10/08 03:21:40;;;;;;;20.27;11.93;;;;;;;15.79;76.15;101245.53;4935651;29;20086;-77
2022/10/08 03:24:06;;;;;;;21.10;11.27;;;;;;;15.54;76.37;101218.97;4935070;29;20055;-77
2022/10/08 03:26:32;;;;;;;18.02;12.52;;;;;;;15.72;76.54;101250.66;4935346;29;20023;-76
2022/10/08 03:28:57;;;;;;;27.27;13.32;;;;;;;15.56;76.92;101227.84;4935137;29;20472;-77
2022/10/08 03:31:22;;;;;;;25.30;12.57;;;;;;;15.76;77.23;101251.25;4935349;29;20417;-77
2022/10/08 03:33:49;;;;;;;26.45;15.48;;;;;;;15.75;78.24;101238.66;4935306;29;20134;-79
2022/10/08 03:36:14;;;;;;;30.38;16.08;;;;;;;15.76;78.33;101240.38;4935486;29;20691;-76
2022/10/08 03:38:40;;;;;;;41.03;16.67;;;;;;;15.76;78.96;101243.09;4934856;29;20027;-75
2022/10/08 03:41:05;;;;;;;27.27;15.50;;;;;;;15.59;79.22;101212.16;4934889;29;20063;-76
2022/10/08 03:43:32;;;;;;;36.05;15.90;;;;;;;15.81;79.60;101243.50;4934795;29;20035;-76
2022/10/08 03:45:58;;;;;;;23.63;14.88;;;;;;;15.81;79.34;101243.50;4935040;29;20032;-75
2022/10/08 03:48:23;;;;;;;34.10;16.88;;;;;;;15.92;79.62;101251.53;4935667;29;20031;-76
2022/10/08 03:50:57;;;;;;;33.58;20.48;;;;;;;15.86;79.94;101230.41;4937383;29;20056;-78
2022/10/08 03:53:23;;;;;;;33.92;18.05;;;;;;;15.95;80.48;101240.38;4948012;29;20035;-77
2022/10/08 03:55:49;;;;;;;43.72;20.55;;;;;;;15.82;80.91;101226.25;4953427;28;20377;-77
2022/10/08 03:58:15;;;;;;;38.13;21.33;;;;;;;15.78;81.26;101216.69;4954115;28;20042;-77
2022/10/08 04:00:40;;;;;;;40.90;22.90;;;;;;;15.91;82.00;101244.38;4944301;28;20035;-76
2022/10/08 04:03:06;;;;;;;37.60;21.38;;;;;;;15.89;81.89;101246.38;4940907;29;20187;-77
2022/10/08 04:05:31;;;;;;;46.58;20.77;;;;;;;15.88;81.86;101254.66;4936078;29;20611;-77
2022/10/08 04:07:57;;;;;;;45.47;23.58;;;;;;;15.86;81.39;101252.09;4935751;29;20066;-76
2022/10/08 04:10:22;;;;;;;69.75;22.33;;;;;;;15.69;81.54;101222.97;4943152;28;20035;-76
2022/10/08 04:12:48;;;;;;;33.95;17.58;;;;;;;15.83;81.32;101246.09;4941298;28;20039;-76
2022/10/08 04:15:13;;;;;;;39.72;17.58;;;;;;;15.82;81.44;101256.09;4935702;29;20043;-77
2022/10/08 04:17:42;;;;;;;49.78;18.13;;;;;;;15.78;81.51;101249.22;4931141;29;20067;-76
2022/10/08 04:20:08;;;;;;;29.30;16.50;;;;;;;15.78;81.51;101251.94;4933369;29;20071;-76
2022/10/08 04:22:33;;;;;;;37.67;16.70;;;;;;;15.80;80.83;101249.97;4933453;29;20126;-76
2022/10/08 04:24:59;;;;;;;25.45;14.30;;;;;;;15.73;80.60;101246.97;4933125;29;20138;-75
2022/10/08 04:27:24;;;;;;;27.20;14.23;;;;;;;15.49;80.61;101202.28;4932968;29;20171;-76
2022/10/08 04:29:50;;;;;;;30.13;14.90;;;;;;;15.71;80.34;101242.69;4932998;29;20032;-76
2022/10/08 04:32:15;;;;;;;32.58;15.43;;;;;;;15.67;79.85;101246.66;4931919;29;20043;-77
2022/10/08 04:34:41;;;;;;;27.10;14.30;;;;;;;15.70;79.85;101243.66;4933427;29;20035;-75
2022/10/08 04:37:07;;;;;;;33.53;15.38;;;;;;;15.71;79.72;101253.53;4933288;29;20135;-75
2022/10/08 04:39:32;;;;;;;27.92;13.02;;;;;;;15.69;79.56;101245.53;4933607;29;20024;-76
2022/10/08 04:41:57;;;;;;;30.02;13.73;;;;;;;15.71;79.31;101242.69;4933314;29;20035;-75
2022/10/08 04:44:23;;;;;;;37.88;15.57;;;;;;;15.67;79.08;101238.53;4933130;29;20027;-75
2022/10/08 04:46:48;;;;;;;29.15;13.80;;;;;;;15.72;78.91;101245.25;4931448;29;20043;-75
2022/10/08 04:49:14;;;;;;;35.15;14.48;;;;;;;15.74;79.30;101248.69;4932934;29;20118;-75
2022/10/08 04:51:39;;;;;;;32.60;12.77;;;;;;;15.78;79.19;101251.94;4933272;29;20032;-75
2022/10/08 04:54:05;;;;;;;33.05;14.20;;;;;;;15.81;78.87;101248.13;4952073;28;20027;-75
2022/10/08 04:56:31;;;;;;;28.42;14.18;;;;;;;15.77;79.15;101252.97;4951734;28;20035;-75
2022/10/08 04:58:58;;;;;;;44.22;12.25;;;;;;;15.81;79.33;101254.38;4952302;28;20035;-75
2022/10/08 05:01:25;;;;;;;37.53;13.73;;;;;;;15.83;79.36;101257.81;4951478;28;20028;-74
2022/10/08 05:03:52;;;;;;;38.67;13.30;;;;;;;15.87;79.69;101263.81;4951433;28;20070;-75
2022/10/08 05:06:20;;;;;;;115.85;16.52;;;;;;;15.94;79.28;101271.22;4951650;28;20023;-75
2022/10/08 05:08:46;;;;;;;34.17;12.50;;;;;;;15.97;78.92;101270.94;4951817;28;20687;-75
2022/10/08 05:11:12;;;;;;;28.13;12.50;;;;;;;15.98;79.15;101269.94;4951187;28;20054;-75
2022/10/08 05:13:38;;;;;;;44.72;14.18;;;;;;;15.98;79.30;101256.38;4951580;28;20146;-76
2022/10/08 05:16:09;;;;;;;16.27;11.63;;;;;;;15.87;78.69;101236.69;4952501;28;20177;-74
2022/10/08 05:18:35;;;;;;;15.65;10.82;;;;;;;16.06;78.79;101264.63;4957777;28;20463;-75
2022/10/08 05:21:02;;;;;;;31.40;13.90;;;;;;;16.11;78.80;101265.09;4953149;28;20102;-75
2022/10/08 05:23:28;;;;;;;17.95;12.10;;;;;;;16.12;78.56;101274.06;4952114;28;20027;-76
2022/10/08 05:25:53;;;;;;;35.25;13.90;;;;;;;16.13;78.73;101270.34;4951558;28;20569;-76
2022/10/08 05:28:18;;;;;;;54.35;14.73;;;;;;;16.20;78.54;101272.34;4951468;28;20542;-75
2022/10/08 05:30:44;;;;;;;36.03;13.00;;;;;;;16.07;78.62;101250.09;4951376;28;20023;-77
2022/10/08 05:33:09;;;;;;;35.60;12.68;;;;;;;16.29;79.02;101276.06;4951363;29;20054;-78
2022/10/08 05:35:38;;;;;;;24.17;12.30;;;;;;;16.15;78.96;101242.06;4951243;28;20042;-76
2022/10/08 05:38:03;;;;;;;88.72;14.27;;;;;;;16.40;78.79;101278.59;4951156;28;20031;-80
2022/10/08 05:40:29;;;;;;;32.97;11.73;;;;;;;16.43;78.77;101288.28;4940220;28;20038;-77
2022/10/08 05:42:55;;;;;;;28.17;11.90;;;;;;;16.42;78.81;101265.72;4932077;29;20039;-79
2022/10/08 05:45:21;;;;;;;22.65;10.93;;;;;;;16.53;78.57;101283.69;4932127;29;20035;-77
2022/10/08 05:47:47;;;;;;;35.05;13.45;;;;;;;16.56;77.89;101273.44;4932398;29;20411;-79
2022/10/08 05:50:13;;;;;;;24.63;11.40;;;;;;;16.63;78.23;101279.13;4931837;29;20035;-76
2022/10/08 05:52:38;;;;;;;26.85;11.60;;;;;;;16.63;78.17;101277.28;4940472;29;20043;-79
2022/10/08 05:55:04;;;;;;;83.63;15.68;;;;;;;16.70;77.77;101277.53;4950952;28;20031;-77
2022/10/08 05:57:30;;;;;;;44.35;11.75;;;;;;;16.68;77.38;101249.66;4950984;28;20031;-78
2022/10/08 05:59:55;;;;;;;27.05;10.82;;;;;;;16.89;77.11;101280.16;4950928;28;20030;-83
2022/10/08 06:02:21;;;;;;;29.13;12.82;;;;;;;16.84;77.07;101267.06;4950948;28;20082;-81
2022/10/08 06:04:48;;;;;;;20.00;9.70;;;;;;;16.85;76.91;101267.88;4951301;28;20398;-78
2022/10/08 06:07:14;;;;;;;28.67;10.80;;;;;;;16.82;76.89;101241.00;4951458;29;20035;-80
2022/10/08 06:09:39;;;;;;;30.05;12.20;;;;;;;17.09;76.52;101276.38;4949773;29;20023;-78
2022/10/08 06:12:05;;;;;;;25.23;9.38;;;;;;;17.07;76.30;101266.63;4951032;28;20102;-79
2022/10/08 06:14:30;;;;;;;63.33;12.80;;;;;;;17.25;75.85;101271.13;4950951;29;20038;-78
2022/10/08 06:16:56;;;;;;;24.98;10.10;;;;;;;17.21;75.62;101252.56;4951150;28;20039;-80
2022/10/08 06:19:21;;;;;;;49.00;11.82;;;;;;;17.48;75.51;101276.13;4951016;28;20034;-76
2022/10/08 06:21:47;;;;;;;26.13;11.38;;;;;;;17.36;75.52;101253.75;4950769;28;20039;-80
2022/10/08 06:24:13;;;;;;;34.45;11.05;;;;;;;17.50;75.41;101252.34;4950334;29;20058;-78
2022/10/08 06:26:41;;;;;;;30.88;11.93;;;;;;;17.68;75.43;101266.84;4952633;28;20027;-80
2022/10/08 06:29:12;;;;;;;14.45;9.20;;;;;;;17.80;75.15;101266.47;4951592;28;20028;-77
2022/10/08 06:31:37;;;;;;;45.78;10.88;;;;;;;17.92;75.07;101275.22;4950805;28;20027;-79
2022/10/08 06:34:03;;;;;;;76.18;12.05;;;;;;;18.01;74.65;101268.84;4956138;28;20042;-76
2022/10/08 06:36:29;;;;;;;33.25;10.30;;;;;;;18.15;74.15;101268.31;4958801;28;20042;-76
2022/10/08 06:39:00;;;;;;;30.13;10.25;;;;;;;18.24;73.09;101264.63;4957342;28;20414;-74
2022/10/08 06:41:29;;;;;;;57.63;9.82;;;;;;;18.34;73.00;101257.22;4954585;29;20038;-76
2022/10/08 06:43:54;;;;;;;53.72;9.18;;;;;;;18.28;72.92;101233.34;4954612;28;20046;-75
2022/10/08 06:46:20;;;;;;;20.65;8.50;;;;;;;18.48;72.43;101262.06;4960168;29;20027;-74
2022/10/08 06:48:46;;;;;;;22.35;8.07;;;;;;;18.37;72.39;101223.38;4954934;28;20406;-77
2022/10/08 06:51:15;;;;;;;57.97;9.13;;;;;;;18.61;72.02;101249.94;4954036;29;20059;-75
2022/10/08 06:53:41;;;;;;;25.13;8.40;;;;;;;18.77;71.55;101269.09;4952025;29;20043;-73
2022/10/08 06:56:13;;;;;;;29.98;8.27;;;;;;;18.84;70.09;101256.50;4954009;29;20035;-75
2022/10/08 06:58:39;;;;;;;36.20;12.90;;;;;;;18.79;69.07;101237.06;4954304;29;20106;-76
2022/10/08 07:01:13;;;;;;;32.58;8.07;;;;;;;19.00;68.23;101245.69;4953795;28;20510;-77
2022/10/08 07:03:39;;;;;;;16.48;7.70;;;;;;;19.09;67.32;101266.50;4954009;29;20054;-75
2022/10/08 07:06:11;;;;;;;50.63;12.85;;;;;;;18.96;66.94;101238.84;4954058;29;20471;-74
2022/10/08 07:08:37;;;;;;;27.63;8.15;;;;;;;19.13;66.76;101267.91;4953985;28;20030;-75
2022/10/08 07:11:14;;;;;;;32.03;8.57;;;;;;;19.29;66.59;101267.97;4953844;29;20031;-77
2022/10/08 07:13:40;;;;;;;21.33;7.55;;;;;;;19.34;65.77;101265.59;4953312;29;20042;-78
2022/10/08 07:16:11;;;;;;;76.82;11.30;;;;;;;19.25;65.99;101254.81;4955913;29;20058;-76
2022/10/08 07:18:38;;;;;;;28.95;12.07;;;;;;;19.31;66.29;101257.75;4954058;28;20085;-75
2022/10/08 07:21:05;;;;;;;65.13;11.65;;;;;;;19.47;65.82;101254.22;4953804;28;20035;-78
2022/10/08 07:23:31;;;;;;;48.38;8.68;;;;;;;19.38;63.37;101226.06;4954316;28;20038;-75
2022/10/08 07:26:09;;;;;;;12.60;7.03;;;;;;;19.61;62.81;101250.84;4953648;29;20565;-75
2022/10/08 07:28:37;;;;;;;29.15;7.97;;;;;;;19.54;63.11;101231.56;4953423;28;20696;-76
2022/10/08 07:31:10;;;;;;;25.23;8.60;;;;;;;19.77;63.12;101241.81;4953733;29;20081;-74
2022/10/08 07:33:35;;;;;;;18.65;7.78;;;;;;;19.89;62.63;101259.56;4952562;29;20031;-77
2022/10/08 07:36:21;;;;;;;19.67;7.63;;;;;;;19.83;62.86;101239.28;4953785;28;20054;-75
2022/10/08 07:38:47;;;;;;;104.10;12.88;;;;;;;19.78;63.33;101219.84;4953408;28;20403;-75
2022/10/08 07:41:13;;;;;;;91.57;11.77;;;;;;;19.96;61.98;101236.91;4953319;28;20019;-76
2022/10/08 07:43:42;;;;;;;64.43;7.90;;;;;;;20.03;60.04;101228.84;4953299;28;20071;-75
2022/10/08 07:46:11;;;;;;;13.20;6.05;;;;;;;20.10;60.38;101235.34;4953589;28;20384;-73
2022/10/08 07:48:37;;;;;;;19.25;6.20;;;;;;;20.12;60.27;101227.81;4953145;28;20165;-73
2022/10/08 07:51:16;;;;;;;54.90;8.45;;;;;;;20.17;59.16;101219.97;4954597;28;20039;-74
2022/10/08 07:53:43;;;;;;;29.92;7.57;;;;;;;20.18;58.91;101232.63;4953610;28;20035;-74
2022/10/08 07:56:10;;;;;;;21.42;6.50;;;;;;;20.23;58.85;101213.81;4954096;28;20422;-75
2022/10/08 07:58:36;;;;;;;19.30;6.20;;;;;;;20.29;58.84;101220.50;4952580;29;20042;-76
2022/10/08 08:01:04;;;;;;;111.50;11.75;;;;;;;20.38;58.12;101217.59;4936461;29;20035;-74
2022/10/08 08:03:30;;;;;;;51.33;9.70;;;;;;;20.49;58.66;101224.56;4933345;29;20053;-74
2022/10/08 08:06:15;;;;;;;19.15;6.15;;;;;;;20.50;56.25;101188.88;4933524;29;20118;-74
2022/10/08 08:08:42;;;;;;;13.13;5.80;;;;;;;20.74;55.85;101203.47;4933194;29;20066;-74
2022/10/08 08:11:11;;;;;;;25.33;6.75;;;;;;;20.85;55.80;101208.56;4933545;29;20035;-75
2022/10/08 08:13:38;;;;;;;15.35;6.20;;;;;;;20.92;55.25;101213.13;4935845;29;20031;-75
2022/10/08 08:16:09;;;;;;;52.65;7.00;;;;;;;21.04;53.58;101232.72;4933747;29;20032;-73
2022/10/08 08:18:37;;;;;;;19.30;5.50;;;;;;;21.09;53.46;101222.16;4946423;29;20040;-74
2022/10/08 08:21:15;;;;;;;21.05;5.88;;;;;;;21.06;53.14;101217.88;4933441;29;20058;-75
2022/10/08 08:24:04;;;;;;;64.78;8.27;;;;;;;21.09;52.78;101223.03;4933129;29;20047;-73
2022/10/08 08:26:33;;;;;;;14.50;5.38;;;;;;;21.10;52.97;101210.16;4932930;29;20035;-74
2022/10/08 08:29:07;;;;;;;36.88;7.43;;;;;;;21.25;52.45;101211.16;4932650;29;20047;-74
2022/10/08 08:31:36;;;;;;;70.45;7.72;;;;;;;21.31;52.24;101210.41;4933063;29;20025;-74
2022/10/08 08:34:05;;;;;;;66.00;9.20;;;;;;;21.46;51.72;101196.81;4932865;29;20150;-74
2022/10/08 08:36:33;;;;;;;87.00;8.73;;;;;;;21.59;50.95;101194.28;4933005;29;20167;-74
2022/10/08 08:39:00;;;;;;;16.52;4.90;;;;;;;21.74;51.01;101217.16;4932804;29;20070;-74
2022/10/08 08:41:55;;;;;;;57.83;7.07;;;;;;;21.89;49.91;101203.53;4932447;29;20106;-75
2022/10/08 08:44:28;;;;;;;27.02;6.20;;;;;;;22.06;50.06;101199.59;4932198;29;20510;-73
2022/10/08 08:47:14;;;;;;;57.95;9.85;;;;;;;22.10;48.31;101200.94;4932720;29;20043;-75
2022/10/08 08:49:46;;;;;;;28.65;5.15;;;;;;;22.12;48.14;101193.38;4932462;29;20042;-75
2022/10/08 08:52:16;;;;;;;22.90;4.53;;;;;;;22.23;47.64;101206.66;4937454;29;20071;-75
2022/10/08 08:54:45;;;;;;;31.42;5.93;;;;;;;22.35;47.87;101204.28;4948655;28;20134;-75
2022/10/08 08:57:37;;;;;;;50.80;6.97;;;;;;;22.56;47.50;101188.81;4952185;29;20033;-75
2022/10/08 09:00:14;;;;;;;21.70;5.38;;;;;;;22.68;47.61;101187.31;4953249;28;20167;-75
2022/10/08 09:02:57;;;;;;;51.72;7.10;;;;;;;22.78;47.66;101196.09;4954461;29;20098;-73
2022/10/08 09:05:24;;;;;;;53.67;7.82;;;;;;;22.95;47.07;101202.22;4954415;29;20019;-75
2022/10/08 09:08:04;;;;;;;17.08;5.20;;;;;;;23.01;46.32;101184.16;4950163;29;20074;-74
2022/10/08 09:10:45;;;;;;;65.97;8.77;;;;;;;23.13;45.41;101194.44;4953241;28;20506;-74
2022/10/08 09:13:24;;;;;;;229.55;16.52;;;;;;;23.21;45.27;101187.97;4952874;29;20562;-74
2022/10/08 09:15:51;;;;;;;101.43;14.13;;;;;;;23.09;45.14;101159.31;4951689;28;20483;-74
2022/10/08 09:18:17;;;;;;;11.35;4.80;;;;;;;23.37;44.87;101174.00;4951601;28;20023;-76
2022/10/08 09:20:43;;;;;;;41.80;8.93;;;;;;;23.21;44.66;101138.56;4951490;29;20042;-76
2022/10/08 09:23:15;;;;;;;13.70;4.68;;;;;;;23.35;44.45;101159.66;4950984;29;20050;-74
2022/10/08 09:25:43;;;;;;;24.48;7.88;;;;;;;23.43;44.40;101189.75;4951163;29;20048;-74
2022/10/08 09:28:08;;;;;;;38.45;9.35;;;;;;;23.30;44.77;101181.34;4951156;29;20118;-73
2022/10/08 09:30:36;;;;;;;35.10;6.45;;;;;;;23.25;45.30;101181.91;4951301;29;20110;-74
2022/10/08 09:33:13;;;;;;;30.75;6.47;;;;;;;23.22;45.55;101170.47;4951053;28;20055;-74
2022/10/08 09:35:47;;;;;;;32.92;6.68;;;;;;;23.12;45.18;101147.97;4950899;29;20031;-75
2022/10/08 09:38:25;;;;;;;361.05;28.13;;;;;;;23.29;45.56;101168.66;4951130;29;20049;-74
2022/10/08 09:41:18;;;;;;;22.05;5.35;;;;;;;23.37;44.93;101163.03;4951541;28;20118;-74
2022/10/08 09:44:03;;;;;;;18.17;4.70;;;;;;;23.40;44.69;101159.06;4948347;29;20514;-75
2022/10/08 09:46:32;;;;;;;47.40;8.15;;;;;;;23.35;45.05;101148.66;4950686;29;20055;-74
2022/10/08 09:49:31;;;;;;;10.52;4.68;;;;;;;23.42;45.12;101141.38;4950929;29;20035;-75
2022/10/08 09:52:01;;;;;;;23.60;5.35;;;;;;;23.52;44.56;101143.78;4928100;29;20051;-73
2022/10/08 09:54:31;;;;;;;169.02;14.60;;;;;;;23.37;44.04;101140.22;4928687;29;20028;-74
2022/10/08 09:56:59;;;;;;;28.70;5.88;;;;;;;23.32;43.95;101149.06;4928708;29;20058;-73
2022/10/08 09:59:27;;;;;;;25.77;6.38;;;;;;;23.33;44.43;101144.41;4928921;29;20443;-74
2022/10/08 10:01:54;;;;;;;82.70;8.52;;;;;;;23.39;44.15;101133.53;4881372;29;20044;-74
2022/10/08 10:04:37;;;;;;;28.15;5.32;;;;;;;23.47;43.47;101138.91;4928589;29;20067;-74
2022/10/08 10:07:03;;;;;;;36.17;5.18;;;;;;;23.36;43.55;101133.91;4927839;29;20047;-75
2022/10/08 10:09:40;;;;;;;16.92;4.68;;;;;;;23.40;43.57;101139.84;4928804;29;20522;-75
2022/10/08 10:12:25;;;;;;;42.58;5.85;;;;;;;23.50;42.91;101135.75;4928941;29;20590;-73
2022/10/08 10:14:56;;;;;;;11.65;4.50;;;;;;;23.64;42.37;101132.06;4928793;29;20055;-75
2022/10/08 10:17:46;;;;;;;79.40;8.90;;;;;;;23.79;42.86;101118.28;4929209;29;20035;-75
2022/10/08 10:20:44;;;;;;;159.45;13.25;;;;;;;23.79;42.72;101130.09;4928782;29;20841;-76
2022/10/08 10:23:15;;;;;;;68.93;6.03;;;;;;;23.68;42.75;101133.38;4928379;29;20542;-74
2022/10/08 10:26:01;;;;;;;12.77;5.70;;;;;;;23.35;42.95;101104.75;4930115;29;20055;-74
2022/10/08 10:28:41;;;;;;;78.25;8.15;;;;;;;23.49;43.27;101117.56;4942567;29;20143;-72
2022/10/08 10:31:14;;;;;;;51.55;18.65;;;;;;;23.55;43.19;101083.81;4951120;28;20054;-74
2022/10/08 10:33:52;;;;;;;304.65;24.83;;;;;;;24.02;42.84;101099.63;4950061;28;20427;-73
2022/10/08 10:36:21;;;;;;;24.95;5.78;;;;;;;24.20;42.26;101079.91;4950044;28;20399;-74
2022/10/08 10:39:07;;;;;;;63.42;8.13;;;;;;;24.29;41.41;101103.44;4950070;29;20054;-74
2022/10/08 10:41:42;;;;;;;13.10;3.92;;;;;;;24.13;40.96;101098.25;4950223;29;20023;-75
2022/10/08 10:44:13;;;;;;;14.13;4.20;;;;;;;23.99;41.19;101101.94;4950217;29;20174;-74
2022/10/08 10:46:38;;;;;;;10.35;4.53;;;;;;;23.79;40.99;101077.91;4950310;29;20039;-74
2022/10/08 10:49:16;;;;;;;14.02;3.63;;;;;;;23.69;41.22;101047.19;4950044;29;20411;-75
2022/10/08 10:51:50;;;;;;;18.23;4.25;;;;;;;23.83;41.29;101087.44;4949694;29;20031;-75
2022/10/08 10:54:25;;;;;;;15.40;4.18;;;;;;;23.67;42.03;101075.88;4950177;29;20179;-74
2022/10/08 10:56:57;;;;;;;90.55;9.13;;;;;;;23.49;42.14;101059.91;4949977;28;20034;-75
2022/10/08 10:59:44;;;;;;;35.05;6.57;;;;;;;23.42;42.73;101044.44;4950386;29;20067;-74
2022/10/08 11:02:29;;;;;;;50.50;6.72;;;;;;;23.30;42.64;101042.19;4947720;29;20043;-76
2022/10/08 11:04:59;;;;;;;37.95;5.25;;;;;;;23.40;42.41;101074.81;4950136;29;20042;-75
2022/10/08 11:07:45;;;;;;;27.92;4.65;;;;;;;23.42;42.45;101028.81;4950351;29;20439;-75
2022/10/08 11:10:27;;;;;;;29.38;6.43;;;;;;;23.71;41.59;101056.06;4949978;29;20032;-73
2022/10/08 11:13:17;;;;;;;16.27;4.03;;;;;;;23.73;41.34;101064.97;4949864;29;20027;-75
2022/10/08 11:15:48;;;;;;;83.00;9.32;;;;;;;23.71;41.42;101049.72;4949462;28;20444;-75
2022/10/08 11:18:28;;;;;;;37.80;9.13;;;;;;;23.79;41.11;101036.69;4951070;28;20031;-76
2022/10/08 11:21:08;;;;;;;36.33;5.97;;;;;;;23.88;41.27;101036.56;4953352;29;20791;-77
2022/10/08 11:23:49;;;;;;;144.60;11.45;;;;;;;24.01;41.22;101034.72;4953348;29;20568;-75
2022/10/08 11:26:24;;;;;;;29.80;6.70;;;;;;;24.04;40.50;101022.47;4953079;28;20023;-75
2022/10/08 11:29:11;;;;;;;35.72;4.85;;;;;;;24.12;40.64;101020.47;4953224;28;20035;-74
2022/10/08 11:31:39;;;;;;;151.48;10.75;;;;;;;23.99;40.00;100959.03;4952969;28;20487;-75